PWSweather.com
Personal Weather Stations
Station Observations
KMAMEDFI2
Medfield, MA 02052

Medfield, MA 02052

Lat: 42.1900822, Lon: -71.3296889

Elevation: 138

Station Type: Rainwise WS MK-III

http://www.medfieldweather.com

High Low Average
Temperature 10.8°F-11.8°C 0.9°F-17.3°C 5.6°F-14.7°C
Dew Point 1.8°F-16.8°C -7.6°F-22.0°C -2.1°F-18.9°C
Winds 17.3 mph 27.8 kmh 1.2 mph 1.9 kmh 7.0 mph WSW11.3 kmh WSW
Wind Gusts 18.4 mph29.6 kmh 1.2 mph1.9 kmh 8.0 mph12.9 kmh
Humidity 89% 48% 71%
Pressure 31.21 in1056.9 mb 29.92 in1013.2 mb -
Precipitation 0.00 in0.0 mm - -
Hour Temp Dew Point Humidity Winds Wind Gusts Pressure Precip Precip Rate Daily Precip Total
12:00 AM 4.1°F-15.5°C 1.3°F-17.1°C 88% 6.9 mph WSW11.1 kmh WSW 11.5 mph18.5 kmh 30.75 in1041.3 mb - 0.00 in0.0 mm 0.00 in0.0 mm
12:10 AM 4.1°F-15.5°C 1.3°F-17.1°C 88% 9.2 mph W14.8 kmh W 9.2 mph14.8 kmh 30.75 in1041.3 mb - 0.00 in0.0 mm 0.00 in0.0 mm
12:20 AM 4.1°F-15.5°C 1.6°F-16.9°C 89% 9.2 mph WSW14.8 kmh WSW 10.4 mph16.7 kmh 30.75 in1041.3 mb - 0.00 in0.0 mm 0.00 in0.0 mm
12:30 AM 4.2°F-15.4°C 1.7°F-16.8°C 89% 11.5 mph W18.5 kmh W 9.2 mph14.8 kmh 30.75 in1041.3 mb - 0.00 in0.0 mm 0.00 in0.0 mm
12:40 AM 4.3°F-15.4°C 1.5°F-16.9°C 88% 5.8 mph SW9.3 kmh SW 5.8 mph9.3 kmh 30.76 in1041.7 mb - 0.00 in0.0 mm 0.00 in0.0 mm
12:50 AM 4.3°F-15.4°C 1.8°F-16.8°C 89% 9.2 mph W14.8 kmh W 9.2 mph14.8 kmh 30.77 in1042.0 mb - 0.00 in0.0 mm 0.00 in0.0 mm
01:00 AM 4.2°F-15.4°C 1.4°F-17.0°C 88% 12.7 mph WSW20.4 kmh WSW 13.8 mph22.2 kmh 30.77 in1042.0 mb - 0.00 in0.0 mm 0.00 in0.0 mm
01:10 AM 4.5°F-15.3°C 1.5°F-16.9°C 87% 13.8 mph WSW22.2 kmh WSW 8.1 mph13.0 kmh 30.77 in1042.0 mb - 0.00 in0.0 mm 0.00 in0.0 mm
01:20 AM 4.4°F-15.3°C 1.4°F-17.0°C 87% 10.4 mph SW16.7 kmh SW 9.2 mph14.8 kmh 30.78 in1042.3 mb - 0.00 in0.0 mm 0.00 in0.0 mm
01:30 AM 4.6°F-15.2°C 1.3°F-17.1°C 86% 11.5 mph SW18.5 kmh SW 11.5 mph18.5 kmh 30.79 in1042.7 mb - 0.00 in0.0 mm 0.00 in0.0 mm
01:40 AM 4.4°F-15.3°C 1.6°F-16.9°C 88% 8.1 mph SW13.0 kmh SW 10.4 mph16.7 kmh 30.80 in1043.0 mb - 0.00 in0.0 mm 0.00 in0.0 mm
01:50 AM 4.5°F-15.3°C 1.2°F-17.1°C 86% 8.1 mph W13.0 kmh W 9.2 mph14.8 kmh 30.81 in1043.3 mb - 0.00 in0.0 mm 0.00 in0.0 mm
02:00 AM 4.4°F-15.3°C 1.1°F-17.2°C 86% 2.3 mph SE3.7 kmh SE 2.3 mph3.7 kmh 30.82 in1043.7 mb - 0.00 in0.0 mm 0.00 in0.0 mm
02:10 AM 4.3°F-15.4°C 1.0°F-17.2°C 86% 6.9 mph NW11.1 kmh NW 9.2 mph14.8 kmh 30.83 in1044.0 mb - 0.00 in0.0 mm 0.00 in0.0 mm
02:20 AM 4.3°F-15.4°C 0.8°F-17.3°C 85% 5.8 mph NW9.3 kmh NW 6.9 mph11.1 kmh 30.83 in1044.0 mb - 0.00 in0.0 mm 0.00 in0.0 mm
02:30 AM 4.7°F-15.2°C 0.1°F-17.7°C 81% 6.9 mph WNW11.1 kmh WNW 12.7 mph20.4 kmh 30.84 in1044.4 mb - 0.00 in0.0 mm 0.00 in0.0 mm
02:40 AM 4.7°F-15.2°C 0.2°F-17.7°C 81% 4.6 mph WSW7.4 kmh WSW 3.5 mph5.6 kmh 30.84 in1044.4 mb - 0.00 in0.0 mm 0.00 in0.0 mm
02:50 AM 4.8°F-15.1°C 0.0°F-17.8°C 80% 10.4 mph SW16.7 kmh SW 13.8 mph22.2 kmh 30.85 in1044.7 mb - 0.00 in0.0 mm 0.00 in0.0 mm
03:00 AM 4.6°F-15.2°C 0.1°F-17.7°C 81% 1.2 mph W1.9 kmh W 3.5 mph5.6 kmh 30.85 in1044.7 mb - 0.00 in0.0 mm 0.00 in0.0 mm
03:10 AM 4.6°F-15.2°C 0.1°F-17.7°C 81% 10.4 mph WNW16.7 kmh WNW 11.5 mph18.5 kmh 30.85 in1044.7 mb - 0.00 in0.0 mm 0.00 in0.0 mm
03:20 AM 4.6°F-15.2°C 0.8°F-17.3°C 84% 16.1 mph WSW25.9 kmh WSW 12.7 mph20.4 kmh 30.85 in1044.7 mb - 0.00 in0.0 mm 0.00 in0.0 mm
03:30 AM 4.4°F-15.3°C 0.4°F-17.6°C 83% 8.1 mph WNW13.0 kmh WNW 18.4 mph29.6 kmh 30.85 in1044.7 mb - 0.00 in0.0 mm 0.00 in0.0 mm
03:40 AM 4.6°F-15.2°C 0.1°F-17.7°C 81% 17.3 mph NW27.8 kmh NW 18.4 mph29.6 kmh 30.85 in1044.7 mb - 0.00 in0.0 mm 0.00 in0.0 mm
03:50 AM 4.4°F-15.3°C 0.4°F-17.6°C 83% 5.8 mph SW9.3 kmh SW 9.2 mph14.8 kmh 30.86 in1045.0 mb - 0.00 in0.0 mm 0.00 in0.0 mm
04:00 AM 4.6°F-15.2°C 0.1°F-17.7°C 81% 9.2 mph WSW14.8 kmh WSW 11.5 mph18.5 kmh 30.86 in1045.0 mb - 0.00 in0.0 mm 0.00 in0.0 mm
04:10 AM 4.4°F-15.3°C -0.1°F-17.8°C 81% 2.3 mph NW3.7 kmh NW 8.1 mph13.0 kmh 30.86 in1045.0 mb - 0.00 in0.0 mm 0.00 in0.0 mm
04:20 AM 4.3°F-15.4°C 0.0°F-17.8°C 82% 9.2 mph SW14.8 kmh SW 8.1 mph13.0 kmh 30.87 in1045.4 mb - 0.00 in0.0 mm 0.00 in0.0 mm
04:30 AM 4.3°F-15.4°C 0.5°F-17.5°C 84% 6.9 mph WSW11.1 kmh WSW 8.1 mph13.0 kmh 30.87 in1045.4 mb - 0.00 in0.0 mm 0.00 in0.0 mm
04:40 AM 3.9°F-15.6°C 0.4°F-17.6°C 85% 2.3 mph SW3.7 kmh SW 2.3 mph3.7 kmh 30.88 in1045.7 mb - 0.00 in0.0 mm 0.00 in0.0 mm
04:50 AM 3.8°F-15.7°C 0.5°F-17.5°C 86% 2.3 mph WNW3.7 kmh WNW 3.5 mph5.6 kmh 30.88 in1045.7 mb - 0.00 in0.0 mm 0.00 in0.0 mm
05:00 AM 3.4°F-15.9°C 0.4°F-17.6°C 87% 4.6 mph WSW7.4 kmh WSW 3.5 mph5.6 kmh 30.89 in1046.1 mb - 0.00 in0.0 mm 0.00 in0.0 mm
05:10 AM 3.5°F-15.8°C 0.3°F-17.6°C 86% 9.2 mph WSW14.8 kmh WSW 10.4 mph16.7 kmh 30.89 in1046.1 mb - 0.00 in0.0 mm 0.00 in0.0 mm
05:20 AM 3.6°F-15.8°C 0.1°F-17.7°C 85% 4.6 mph WSW7.4 kmh WSW 8.1 mph13.0 kmh 30.89 in1046.1 mb - 0.00 in0.0 mm 0.00 in0.0 mm
05:30 AM 3.5°F-15.8°C -0.3°F-17.9°C 84% 12.7 mph W20.4 kmh W 17.3 mph27.8 kmh 30.90 in1046.4 mb - 0.00 in0.0 mm 0.00 in0.0 mm
05:40 AM 3.4°F-15.9°C -0.1°F-17.8°C 85% 3.5 mph WSW5.6 kmh WSW 8.1 mph13.0 kmh 30.90 in1046.4 mb - 0.00 in0.0 mm 0.00 in0.0 mm
05:50 AM 3.6°F-15.8°C -0.2°F-17.9°C 84% 9.2 mph W14.8 kmh W 9.2 mph14.8 kmh 30.91 in1046.7 mb - 0.00 in0.0 mm 0.00 in0.0 mm
06:00 AM 3.7°F-15.7°C -0.1°F-17.8°C 84% 10.4 mph W16.7 kmh W 8.1 mph13.0 kmh 30.91 in1046.7 mb - 0.00 in0.0 mm 0.00 in0.0 mm
06:10 AM 3.5°F-15.8°C 0.0°F-17.8°C 85% 4.6 mph WSW7.4 kmh WSW 8.1 mph13.0 kmh 30.91 in1046.7 mb - 0.00 in0.0 mm 0.00 in0.0 mm
06:20 AM 3.6°F-15.8°C -0.2°F-17.9°C 84% 13.8 mph SW22.2 kmh SW 12.7 mph20.4 kmh 30.91 in1046.7 mb - 0.00 in0.0 mm 0.00 in0.0 mm
06:30 AM 3.6°F-15.8°C -0.4°F-18.0°C 83% 9.2 mph W14.8 kmh W 9.2 mph14.8 kmh 30.91 in1046.7 mb - 0.00 in0.0 mm 0.00 in0.0 mm
06:40 AM 3.8°F-15.7°C -0.5°F-18.1°C 82% 17.3 mph NW27.8 kmh NW 17.3 mph27.8 kmh 30.91 in1046.7 mb - 0.00 in0.0 mm 0.00 in0.0 mm
06:50 AM 3.6°F-15.8°C -0.6°F-18.1°C 82% 9.2 mph SW14.8 kmh SW 11.5 mph18.5 kmh 30.91 in1046.7 mb - 0.00 in0.0 mm 0.00 in0.0 mm
07:00 AM 3.7°F-15.7°C -0.6°F-18.1°C 82% 10.4 mph W16.7 kmh W 12.7 mph20.4 kmh 30.91 in1046.7 mb - 0.00 in0.0 mm 0.00 in0.0 mm
07:10 AM 3.6°F-15.8°C -0.9°F-18.3°C 81% 8.1 mph NW13.0 kmh NW 9.2 mph14.8 kmh 30.92 in1047.1 mb - 0.00 in0.0 mm 0.00 in0.0 mm
07:20 AM 3.4°F-15.9°C -0.9°F-18.3°C 82% 15.0 mph SW24.1 kmh SW 13.8 mph22.2 kmh 30.92 in1047.1 mb - 0.00 in0.0 mm 0.00 in0.0 mm
07:30 AM 3.4°F-15.9°C -0.9°F-18.3°C 82% 6.9 mph SW11.1 kmh SW 13.8 mph22.2 kmh 30.92 in1047.1 mb - 0.00 in0.0 mm 0.00 in0.0 mm
07:40 AM 3.3°F-15.9°C -1.0°F-18.3°C 82% 3.5 mph WSW5.6 kmh WSW 8.1 mph13.0 kmh 30.92 in1047.1 mb - 0.00 in0.0 mm 0.00 in0.0 mm
07:50 AM 3.2°F-16.0°C -1.3°F-18.5°C 81% 6.9 mph NW11.1 kmh NW 6.9 mph11.1 kmh 30.91 in1046.7 mb - 0.00 in0.0 mm 0.00 in0.0 mm
08:00 AM 3.3°F-15.9°C -1.5°F-18.6°C 80% 5.8 mph WSW9.3 kmh WSW 5.8 mph9.3 kmh 30.91 in1046.7 mb - 0.00 in0.0 mm 0.00 in0.0 mm
08:10 AM 3.4°F-15.9°C -1.9°F-18.8°C 78% 6.9 mph NW11.1 kmh NW 5.8 mph9.3 kmh 30.91 in1046.7 mb - 0.00 in0.0 mm 0.00 in0.0 mm
08:20 AM 3.5°F-15.8°C -2.1°F-18.9°C 77% 3.5 mph NW5.6 kmh NW 2.3 mph3.7 kmh 30.89 in1046.1 mb - 0.00 in0.0 mm 0.00 in0.0 mm
08:30 AM 3.6°F-15.8°C -2.0°F-18.9°C 77% 4.6 mph NW7.4 kmh NW 8.1 mph13.0 kmh 30.88 in1045.7 mb - 0.00 in0.0 mm 0.00 in0.0 mm
08:40 AM 4.1°F-15.5°C -3.2°F-19.6°C 71% 8.1 mph WSW13.0 kmh WSW 8.1 mph13.0 kmh 30.60 in1036.2 mb - 0.00 in0.0 mm 0.00 in0.0 mm
08:50 AM 4.3°F-15.4°C -2.4°F-19.1°C 73% 10.4 mph WSW16.7 kmh WSW 11.5 mph18.5 kmh 30.78 in1042.3 mb - 0.00 in0.0 mm 0.00 in0.0 mm
09:00 AM 4.5°F-15.3°C -4.4°F-20.2°C 66% 11.5 mph WSW18.5 kmh WSW 11.5 mph18.5 kmh 30.55 in1034.5 mb - 0.00 in0.0 mm 0.00 in0.0 mm
09:10 AM 4.8°F-15.1°C -7.1°F-21.7°C 57% 4.6 mph WSW7.4 kmh WSW 5.8 mph9.3 kmh 30.11 in1019.6 mb - 0.00 in0.0 mm 0.00 in0.0 mm
09:20 AM 5.1°F-14.9°C -7.6°F-22.0°C 55% 12.7 mph WNW20.4 kmh WNW 9.2 mph14.8 kmh 30.06 in1017.9 mb - 0.00 in0.0 mm 0.00 in0.0 mm
09:30 AM 5.1°F-14.9°C -4.1°F-20.1°C 65% 12.7 mph W20.4 kmh W 12.7 mph20.4 kmh 30.48 in1032.2 mb - 0.00 in0.0 mm 0.00 in0.0 mm
09:40 AM 5.2°F-14.9°C -4.3°F-20.2°C 64% 4.6 mph SSE7.4 kmh SSE 5.8 mph9.3 kmh 30.48 in1032.2 mb - 0.00 in0.0 mm 0.00 in0.0 mm
09:50 AM 5.7°F-14.6°C -7.4°F-21.9°C 54% 8.1 mph SW13.0 kmh SW 10.4 mph16.7 kmh 30.34 in1027.4 mb - 0.00 in0.0 mm 0.00 in0.0 mm
10:00 AM 6.1°F-14.4°C -5.5°F-20.8°C 58% 17.3 mph WNW27.8 kmh WNW 13.8 mph22.2 kmh 30.04 in1017.3 mb - 0.00 in0.0 mm 0.00 in0.0 mm
10:10 AM 6.1°F-14.4°C -4.5°F-20.3°C 61% 11.5 mph WSW18.5 kmh WSW 9.2 mph14.8 kmh 30.38 in1028.8 mb - 0.00 in0.0 mm 0.00 in0.0 mm
10:20 AM 6.8°F-14.0°C -7.5°F-21.9°C 51% 10.4 mph W16.7 kmh W 9.2 mph14.8 kmh 29.92 in1013.2 mb - 0.00 in0.0 mm 0.00 in0.0 mm
10:30 AM 7.5°F-13.6°C -7.3°F-21.8°C 50% 6.9 mph W11.1 kmh W 6.9 mph11.1 kmh 29.93 in1013.5 mb - 0.00 in0.0 mm 0.00 in0.0 mm
10:40 AM 7.9°F-13.4°C -6.9°F-21.6°C 50% 6.9 mph W11.1 kmh W 6.9 mph11.1 kmh 29.93 in1013.5 mb - 0.00 in0.0 mm 0.00 in0.0 mm
10:50 AM 8.3°F-13.2°C -6.5°F-21.4°C 50% 8.1 mph NNW13.0 kmh NNW 6.9 mph11.1 kmh 29.92 in1013.2 mb - 0.00 in0.0 mm 0.00 in0.0 mm
11:00 AM 9.1°F-12.7°C -6.2°F-21.2°C 49% 3.5 mph NNW5.6 kmh NNW 3.5 mph5.6 kmh 29.93 in1013.5 mb - 0.00 in0.0 mm 0.00 in0.0 mm
11:10 AM 9.3°F-12.6°C -6.0°F-21.1°C 49% 10.4 mph SSW16.7 kmh SSW 10.4 mph16.7 kmh 29.98 in1015.2 mb - 0.00 in0.0 mm 0.00 in0.0 mm
11:20 AM 9.1°F-12.7°C -6.2°F-21.2°C 49% 5.8 mph WSW9.3 kmh WSW 8.1 mph13.0 kmh 29.99 in1015.6 mb - 0.00 in0.0 mm 0.00 in0.0 mm
11:30 AM 9.3°F-12.6°C -6.0°F-21.1°C 49% 10.4 mph WNW16.7 kmh WNW 8.1 mph13.0 kmh 29.98 in1015.2 mb - 0.00 in0.0 mm 0.00 in0.0 mm
11:40 AM 9.9°F-12.3°C -5.5°F-20.8°C 49% 5.8 mph WSW9.3 kmh WSW 5.8 mph9.3 kmh 29.99 in1015.6 mb - 0.00 in0.0 mm 0.00 in0.0 mm
11:50 AM 10.1°F-12.2°C -5.7°F-20.9°C 48% 9.2 mph SW14.8 kmh SW 8.1 mph13.0 kmh 30.00 in1015.9 mb - 0.00 in0.0 mm 0.00 in0.0 mm
12:00 PM 10.3°F-12.1°C -5.5°F-20.8°C 48% 11.5 mph WSW18.5 kmh WSW 18.4 mph29.6 kmh 30.00 in1015.9 mb - 0.00 in0.0 mm 0.00 in0.0 mm
12:10 PM 10.3°F-12.1°C -5.1°F-20.6°C 49% 4.6 mph W7.4 kmh W 5.8 mph9.3 kmh 30.02 in1016.6 mb - 0.00 in0.0 mm 0.00 in0.0 mm
12:20 PM 10.3°F-12.1°C -5.5°F-20.8°C 48% 5.8 mph SW9.3 kmh SW 5.8 mph9.3 kmh 30.01 in1016.3 mb - 0.00 in0.0 mm 0.00 in0.0 mm
12:30 PM 10.2°F-12.1°C -5.6°F-20.9°C 48% 11.5 mph NW18.5 kmh NW 9.2 mph14.8 kmh 29.96 in1014.6 mb - 0.00 in0.0 mm 0.00 in0.0 mm
12:40 PM 10.1°F-12.2°C -5.3°F-20.7°C 49% 8.1 mph WSW13.0 kmh WSW 9.2 mph14.8 kmh 30.04 in1017.3 mb - 0.00 in0.0 mm 0.00 in0.0 mm
12:50 PM 10.0°F-12.2°C -5.0°F-20.6°C 50% 9.2 mph WSW14.8 kmh WSW 8.1 mph13.0 kmh 30.14 in1020.7 mb - 0.00 in0.0 mm 0.00 in0.0 mm
01:00 PM 10.2°F-12.1°C -3.6°F-19.8°C 53% 4.6 mph W7.4 kmh W 2.3 mph3.7 kmh 30.26 in1024.7 mb - 0.00 in0.0 mm 0.00 in0.0 mm
01:10 PM 10.6°F-11.9°C -3.2°F-19.6°C 53% 15.0 mph WSW24.1 kmh WSW 13.8 mph22.2 kmh 30.26 in1024.7 mb - 0.00 in0.0 mm 0.00 in0.0 mm
01:20 PM 10.5°F-11.9°C -3.2°F-19.6°C 53% 8.1 mph SW13.0 kmh SW 8.1 mph13.0 kmh 30.28 in1025.4 mb - 0.00 in0.0 mm 0.00 in0.0 mm
01:30 PM 10.8°F-11.8°C -3.4°F-19.7°C 52% 3.5 mph WNW5.6 kmh WNW 6.9 mph11.1 kmh 30.28 in1025.4 mb - 0.00 in0.0 mm 0.00 in0.0 mm
01:40 PM 10.4°F-12.0°C -3.7°F-19.8°C 52% 6.9 mph SW11.1 kmh SW 6.9 mph11.1 kmh 30.30 in1026.1 mb - 0.00 in0.0 mm 0.00 in0.0 mm
01:50 PM 10.6°F-11.9°C -2.8°F-19.3°C 54% 11.5 mph NNW18.5 kmh NNW 11.5 mph18.5 kmh 30.30 in1026.1 mb - 0.00 in0.0 mm 0.00 in0.0 mm
02:00 PM 10.7°F-11.8°C -2.7°F-19.3°C 54% 3.5 mph WSW5.6 kmh WSW 9.2 mph14.8 kmh 30.32 in1026.8 mb - 0.00 in0.0 mm 0.00 in0.0 mm
02:10 PM 10.4°F-12.0°C -1.8°F-18.8°C 57% 10.4 mph WNW16.7 kmh WNW 11.5 mph18.5 kmh 30.45 in1031.2 mb - 0.00 in0.0 mm 0.00 in0.0 mm
02:20 PM 10.1°F-12.2°C -2.1°F-18.9°C 57% 15.0 mph WSW24.1 kmh WSW 16.1 mph25.9 kmh 30.47 in1031.8 mb - 0.00 in0.0 mm 0.00 in0.0 mm
02:30 PM 10.0°F-12.2°C -1.8°F-18.8°C 58% 9.2 mph WSW14.8 kmh WSW 9.2 mph14.8 kmh 30.49 in1032.5 mb - 0.00 in0.0 mm 0.00 in0.0 mm
02:40 PM 9.7°F-12.4°C -2.2°F-19.0°C 58% 6.9 mph SW11.1 kmh SW 6.9 mph11.1 kmh 30.50 in1032.8 mb - 0.00 in0.0 mm 0.00 in0.0 mm
02:50 PM 9.4°F-12.6°C -2.4°F-19.1°C 58% 13.8 mph WNW22.2 kmh WNW 12.7 mph20.4 kmh 30.51 in1033.2 mb - 0.00 in0.0 mm 0.00 in0.0 mm
03:00 PM 9.3°F-12.6°C -2.2°F-19.0°C 59% 11.5 mph W18.5 kmh W 11.5 mph18.5 kmh 30.53 in1033.9 mb - 0.00 in0.0 mm 0.00 in0.0 mm
03:10 PM 9.2°F-12.7°C -2.7°F-19.3°C 58% 15.0 mph WSW24.1 kmh WSW 13.8 mph22.2 kmh 30.54 in1034.2 mb - 0.00 in0.0 mm 0.00 in0.0 mm
03:20 PM 9.0°F-12.8°C -2.8°F-19.3°C 58% 5.8 mph WSW9.3 kmh WSW 9.2 mph14.8 kmh 30.53 in1033.9 mb - 0.00 in0.0 mm 0.00 in0.0 mm
03:30 PM 8.7°F-12.9°C -2.7°F-19.3°C 59% 16.1 mph WSW25.9 kmh WSW 16.1 mph25.9 kmh 30.54 in1034.2 mb - 0.00 in0.0 mm 0.00 in0.0 mm
03:40 PM 8.6°F-13.0°C -2.5°F-19.2°C 60% 12.7 mph WNW20.4 kmh WNW 9.2 mph14.8 kmh 30.56 in1034.9 mb - 0.00 in0.0 mm 0.00 in0.0 mm
03:50 PM 8.4°F-13.1°C -3.0°F-19.4°C 59% 4.6 mph SW7.4 kmh SW 2.3 mph3.7 kmh 30.58 in1035.6 mb - 0.00 in0.0 mm 0.00 in0.0 mm
04:00 PM 8.2°F-13.2°C -2.9°F-19.4°C 60% 5.8 mph W9.3 kmh W 3.5 mph5.6 kmh 30.59 in1035.9 mb - 0.00 in0.0 mm 0.00 in0.0 mm
04:10 PM 8.0°F-13.3°C -2.7°F-19.3°C 61% 4.6 mph W7.4 kmh W 8.1 mph13.0 kmh 30.61 in1036.6 mb - 0.00 in0.0 mm 0.00 in0.0 mm
04:20 PM 7.9°F-13.4°C -2.8°F-19.3°C 61% 3.5 mph WSW5.6 kmh WSW 5.8 mph9.3 kmh 30.63 in1037.3 mb - 0.00 in0.0 mm 0.00 in0.0 mm
04:30 PM 7.6°F-13.6°C -2.8°F-19.3°C 62% 9.2 mph WSW14.8 kmh WSW 8.1 mph13.0 kmh 30.66 in1038.3 mb - 0.00 in0.0 mm 0.00 in0.0 mm
04:40 PM 7.2°F-13.8°C -2.8°F-19.3°C 63% 9.2 mph W14.8 kmh W 8.1 mph13.0 kmh 30.67 in1038.6 mb - 0.00 in0.0 mm 0.00 in0.0 mm
04:50 PM 7.0°F-13.9°C -2.6°F-19.2°C 64% 4.6 mph SW7.4 kmh SW 5.8 mph9.3 kmh 30.70 in1039.6 mb - 0.00 in0.0 mm 0.00 in0.0 mm
05:00 PM 6.8°F-14.0°C -2.2°F-19.0°C 66% 4.6 mph SW7.4 kmh SW 9.2 mph14.8 kmh 30.72 in1040.3 mb - 0.00 in0.0 mm 0.00 in0.0 mm
05:10 PM 6.6°F-14.1°C -2.4°F-19.1°C 66% 8.1 mph W13.0 kmh W 8.1 mph13.0 kmh 30.73 in1040.6 mb - 0.00 in0.0 mm 0.00 in0.0 mm
05:20 PM 6.8°F-14.0°C -2.2°F-19.0°C 66% 6.9 mph WNW11.1 kmh WNW 8.1 mph13.0 kmh 30.75 in1041.3 mb - 0.00 in0.0 mm 0.00 in0.0 mm
05:30 PM 6.4°F-14.2°C -1.6°F-18.7°C 69% 2.3 mph W3.7 kmh W 1.2 mph1.9 kmh 30.77 in1042.0 mb - 0.00 in0.0 mm 0.00 in0.0 mm
05:40 PM 6.2°F-14.3°C -1.8°F-18.8°C 69% 6.9 mph WSW11.1 kmh WSW 5.8 mph9.3 kmh 30.78 in1042.3 mb - 0.00 in0.0 mm 0.00 in0.0 mm
05:50 PM 6.0°F-14.4°C -1.4°F-18.6°C 71% 5.8 mph W9.3 kmh W 6.9 mph11.1 kmh 30.80 in1043.0 mb - 0.00 in0.0 mm 0.00 in0.0 mm
06:00 PM 6.2°F-14.3°C -1.5°F-18.6°C 70% 11.5 mph W18.5 kmh W 6.9 mph11.1 kmh 30.82 in1043.7 mb - 0.00 in0.0 mm 0.00 in0.0 mm
06:10 PM 6.1°F-14.4°C -1.6°F-18.7°C 70% 5.8 mph WSW9.3 kmh WSW 2.3 mph3.7 kmh 30.84 in1044.4 mb - 0.00 in0.0 mm 0.00 in0.0 mm
06:20 PM 5.9°F-14.5°C -1.2°F-18.4°C 72% 6.9 mph WNW11.1 kmh WNW 5.8 mph9.3 kmh 30.86 in1045.0 mb - 0.00 in0.0 mm 0.00 in0.0 mm
06:30 PM 5.8°F-14.6°C -1.3°F-18.5°C 72% 8.1 mph SW13.0 kmh SW 10.4 mph16.7 kmh 30.87 in1045.4 mb - 0.00 in0.0 mm 0.00 in0.0 mm
06:40 PM 5.6°F-14.7°C -0.9°F-18.3°C 74% 2.3 mph WSW3.7 kmh WSW 2.3 mph3.7 kmh 30.88 in1045.7 mb - 0.00 in0.0 mm 0.00 in0.0 mm
06:50 PM 5.8°F-14.6°C -1.0°F-18.3°C 73% 4.6 mph WSW7.4 kmh WSW 3.5 mph5.6 kmh 30.90 in1046.4 mb - 0.00 in0.0 mm 0.00 in0.0 mm
07:00 PM 5.7°F-14.6°C -0.8°F-18.2°C 74% 2.3 mph WNW3.7 kmh WNW 2.3 mph3.7 kmh 30.92 in1047.1 mb - 0.00 in0.0 mm 0.00 in0.0 mm
07:10 PM 5.6°F-14.7°C -1.2°F-18.4°C 73% 9.2 mph WNW14.8 kmh WNW 3.5 mph5.6 kmh 30.93 in1047.4 mb - 0.00 in0.0 mm 0.00 in0.0 mm
07:20 PM 5.9°F-14.5°C -1.2°F-18.4°C 72% 4.6 mph NW7.4 kmh NW 2.3 mph3.7 kmh 30.95 in1048.1 mb - 0.00 in0.0 mm 0.00 in0.0 mm
07:30 PM 5.9°F-14.5°C -1.5°F-18.6°C 71% 5.8 mph WSW9.3 kmh WSW 6.9 mph11.1 kmh 30.96 in1048.4 mb - 0.00 in0.0 mm 0.00 in0.0 mm
07:40 PM 5.7°F-14.6°C -1.7°F-18.7°C 71% 5.8 mph WSW9.3 kmh WSW 6.9 mph11.1 kmh 30.98 in1049.1 mb - 0.00 in0.0 mm 0.00 in0.0 mm
07:50 PM 5.6°F-14.7°C -1.8°F-18.8°C 71% 3.5 mph W5.6 kmh W 8.1 mph13.0 kmh 31.00 in1049.8 mb - 0.00 in0.0 mm 0.00 in0.0 mm
08:00 PM 5.4°F-14.8°C -1.7°F-18.7°C 72% 4.6 mph NW7.4 kmh NW 5.8 mph9.3 kmh 31.01 in1050.1 mb - 0.00 in0.0 mm 0.00 in0.0 mm
08:10 PM 5.2°F-14.9°C -1.9°F-18.8°C 72% 4.6 mph WSW7.4 kmh WSW 5.8 mph9.3 kmh 31.03 in1050.8 mb - 0.00 in0.0 mm 0.00 in0.0 mm
08:20 PM 4.8°F-15.1°C -2.3°F-19.1°C 72% 6.9 mph W11.1 kmh W 8.1 mph13.0 kmh 31.05 in1051.5 mb - 0.00 in0.0 mm 0.00 in0.0 mm
08:30 PM 4.6°F-15.2°C -2.2°F-19.0°C 73% 4.6 mph SW7.4 kmh SW 5.8 mph9.3 kmh 31.06 in1051.8 mb - 0.00 in0.0 mm 0.00 in0.0 mm
08:40 PM 4.4°F-15.3°C -2.3°F-19.1°C 73% 4.6 mph NW7.4 kmh NW 5.8 mph9.3 kmh 31.07 in1052.2 mb - 0.00 in0.0 mm 0.00 in0.0 mm
08:50 PM 4.1°F-15.5°C -2.7°F-19.3°C 73% 3.5 mph W5.6 kmh W 5.8 mph9.3 kmh 31.09 in1052.8 mb - 0.00 in0.0 mm 0.00 in0.0 mm
09:00 PM 3.8°F-15.7°C -2.6°F-19.2°C 74% 3.5 mph WSW5.6 kmh WSW 8.1 mph13.0 kmh 31.11 in1053.5 mb - 0.00 in0.0 mm 0.00 in0.0 mm
09:10 PM 3.7°F-15.7°C -3.0°F-19.4°C 73% 12.7 mph W20.4 kmh W 11.5 mph18.5 kmh 31.11 in1053.5 mb - 0.00 in0.0 mm 0.00 in0.0 mm
09:20 PM 3.7°F-15.7°C -2.8°F-19.3°C 74% 3.5 mph W5.6 kmh W 2.3 mph3.7 kmh 31.12 in1053.8 mb - 0.00 in0.0 mm 0.00 in0.0 mm
09:30 PM 3.5°F-15.8°C -3.2°F-19.6°C 73% 5.8 mph WSW9.3 kmh WSW 8.1 mph13.0 kmh 31.13 in1054.2 mb - 0.00 in0.0 mm 0.00 in0.0 mm
09:40 PM 3.4°F-15.9°C -3.0°F-19.4°C 74% 5.8 mph NW9.3 kmh NW 8.1 mph13.0 kmh 31.15 in1054.9 mb - 0.00 in0.0 mm 0.00 in0.0 mm
09:50 PM 3.1°F-16.1°C -3.4°F-19.7°C 74% 1.2 mph WNW1.9 kmh WNW 3.5 mph5.6 kmh 31.15 in1054.9 mb - 0.00 in0.0 mm 0.00 in0.0 mm
10:00 PM 2.8°F-16.2°C -3.3°F-19.6°C 75% 2.3 mph WSW3.7 kmh WSW 3.5 mph5.6 kmh 31.17 in1055.5 mb - 0.00 in0.0 mm 0.00 in0.0 mm
10:10 PM 2.6°F-16.3°C -3.3°F-19.6°C 76% 6.9 mph WSW11.1 kmh WSW 8.1 mph13.0 kmh 31.17 in1055.5 mb - 0.00 in0.0 mm 0.00 in0.0 mm
10:20 PM 2.3°F-16.5°C -3.5°F-19.7°C 76% 4.6 mph SW7.4 kmh SW 3.5 mph5.6 kmh 31.18 in1055.9 mb - 0.00 in0.0 mm 0.00 in0.0 mm
10:30 PM 1.9°F-16.7°C -3.4°F-19.7°C 78% 2.3 mph WNW3.7 kmh WNW 2.3 mph3.7 kmh 31.19 in1056.2 mb - 0.00 in0.0 mm 0.00 in0.0 mm
10:40 PM 1.5°F-16.9°C -3.8°F-19.9°C 78% 3.5 mph NNW5.6 kmh NNW 3.5 mph5.6 kmh 31.19 in1056.2 mb - 0.00 in0.0 mm 0.00 in0.0 mm
10:50 PM 1.3°F-17.1°C -3.7°F-19.8°C 79% 5.8 mph WNW9.3 kmh WNW 6.9 mph11.1 kmh 31.20 in1056.6 mb - 0.00 in0.0 mm 0.00 in0.0 mm
11:00 PM 0.9°F-17.3°C -3.8°F-19.9°C 80% 3.5 mph SW5.6 kmh SW 2.3 mph3.7 kmh 31.21 in1056.9 mb - 0.00 in0.0 mm 0.00 in0.0 mm
11:10 PM 0.9°F-17.3°C -3.8°F-19.9°C 80% 3.5 mph SW5.6 kmh SW 2.3 mph3.7 kmh 31.21 in1056.9 mb - 0.00 in0.0 mm 0.00 in0.0 mm
11:20 PM 0.9°F-17.3°C -3.8°F-19.9°C 80% 3.5 mph SW5.6 kmh SW 2.3 mph3.7 kmh 31.21 in1056.9 mb - 0.00 in0.0 mm 0.00 in0.0 mm
11:30 PM 0.9°F-17.3°C -3.8°F-19.9°C 80% 3.5 mph SW5.6 kmh SW 2.3 mph3.7 kmh 31.21 in1056.9 mb - 0.00 in0.0 mm 0.00 in0.0 mm
11:40 PM 0.9°F-17.3°C -3.8°F-19.9°C 80% 3.5 mph SW5.6 kmh SW 2.3 mph3.7 kmh 31.21 in1056.9 mb - 0.00 in0.0 mm 0.00 in0.0 mm
11:50 PM 0.9°F-17.3°C -3.8°F-19.9°C 80% 3.5 mph SW5.6 kmh SW 2.3 mph3.7 kmh 31.21 in1056.9 mb - 0.00 in0.0 mm 0.00 in0.0 mm